Time;durP1;ratioP1;P1;durP2;ratioP2;P2;SDS_P1;SDS_P2;PMS_P1;PMS_P2;Temp;Humidity;BMP_temperature;BMP_pressure;BME280_temperature;BME280_humidity;BME280_pressure;Samples;Min_cycle;Max_cycle;Signal;HPM_P1;HPM_P2
2023/01/10 00:01:10;;;;;;;2.57;1.90;;;;;;;6.87;75.08;99457.56;4971567;28;20283;-85
2023/01/10 00:03:35;;;;;;;3.40;1.40;;;;;;;6.89;74.79;99465.34;4969999;28;20232;-85
2023/01/10 00:06:00;;;;;;;1.20;1.07;;;;;;;6.92;74.76;99462.56;4971039;28;20205;-85
2023/01/10 00:08:26;;;;;;;2.03;1.27;;;;;;;6.94;74.58;99463.31;4970398;28;20253;-85
2023/01/10 00:10:51;;;;;;;2.33;1.17;;;;;;;6.94;74.55;99472.03;4969170;28;20208;-85
2023/01/10 00:13:23;;;;;;;3.17;1.27;;;;;;;6.95;74.57;99483.31;4952252;28;20316;-85
2023/01/10 00:15:53;;;;;;;7.55;1.30;;;;;;;6.94;74.51;99486.81;4951653;28;20204;-85
2023/01/10 00:18:19;;;;;;;1.98;1.33;;;;;;;6.95;74.65;99491.13;4950437;29;20210;-84
2023/01/10 00:20:46;;;;;;;2.20;1.40;;;;;;;6.96;74.64;99490.19;4951643;28;20197;-84
2023/01/10 00:23:12;;;;;;;1.40;1.20;;;;;;;6.95;74.51;99498.97;4951570;29;20246;-84
2023/01/10 00:25:38;;;;;;;5.43;1.07;;;;;;;6.96;74.79;99501.50;4950679;29;20197;-84
2023/01/10 00:28:18;;;;;;;2.42;0.88;;;;;;;6.97;74.72;99503.19;4951199;28;20654;-86
2023/01/10 00:31:05;;;;;;;1.08;0.95;;;;;;;7.00;74.41;99512.66;4950302;28;20681;-84
2023/01/10 00:33:32;;;;;;;1.95;0.90;;;;;;;6.99;74.58;99516.16;4951382;28;20446;-84
2023/01/10 00:36:02;;;;;;;2.47;1.42;;;;;;;6.98;74.36;99523.16;4951638;28;20193;-84
2023/01/10 00:38:29;;;;;;;1.92;1.27;;;;;;;6.99;74.61;99530.06;4950460;28;20642;-84
2023/01/10 00:40:55;;;;;;;1.40;1.08;;;;;;;6.99;74.57;99529.22;4952147;28;20204;-85
2023/01/10 00:46:06;;;;;;;5.43;1.10;;;;;;;6.94;74.86;99547.75;4972976;28;20197;-84
2023/01/10 00:48:32;;;;;;;3.33;1.05;;;;;;;6.93;74.70;99553.03;4955534;28;20220;-84
2023/01/10 00:50:57;;;;;;;1.47;0.70;;;;;;;6.93;74.73;99558.25;4970846;28;20206;-84
2023/01/10 00:53:22;;;;;;;1.37;1.10;;;;;;;6.94;74.77;99573.00;4970155;28;20217;-84
2023/01/10 00:55:48;;;;;;;1.97;1.07;;;;;;;6.94;74.42;99571.25;4970403;28;20225;-84
2023/01/10 00:58:14;;;;;;;1.47;0.87;;;;;;;6.95;74.24;99588.59;4970574;28;20244;-85
2023/01/10 01:00:41;;;;;;;0.80;0.75;;;;;;;6.97;74.30;99596.38;4953162;28;20211;-85
2023/01/10 01:03:07;;;;;;;2.15;0.80;;;;;;;7.00;74.40;99604.88;4952697;28;20228;-85
2023/01/10 01:05:33;;;;;;;2.80;0.90;;;;;;;7.03;74.50;99617.78;4968797;28;20200;-85
2023/01/10 01:07:58;;;;;;;2.90;1.30;;;;;;;7.05;74.17;99613.34;4969397;28;20722;-84
2023/01/10 01:10:27;;;;;;;1.57;0.67;;;;;;;7.07;74.29;99608.03;4972035;28;20291;-85
2023/01/10 01:13:05;;;;;;;3.80;1.00;;;;;;;7.05;74.04;99605.50;4986020;28;20696;-86
2023/01/10 01:15:33;;;;;;;2.40;0.80;;;;;;;7.05;74.09;99615.97;4991814;28;20764;-85
2023/01/10 01:17:58;;;;;;;1.35;0.80;;;;;;;7.04;74.21;99624.69;4990779;28;20204;-85
2023/01/10 01:20:24;;;;;;;3.00;1.00;;;;;;;7.01;74.34;99634.44;4992545;28;20238;-85
2023/01/10 01:22:49;;;;;;;3.23;1.73;;;;;;;7.00;74.58;99631.00;4992721;28;20248;-85
2023/01/10 01:25:15;;;;;;;1.57;1.00;;;;;;;7.01;74.64;99639.69;4993260;28;20203;-85
2023/01/10 01:27:40;;;;;;;0.97;0.87;;;;;;;7.00;74.61;99648.44;4987806;28;20273;-85
2023/01/10 01:30:07;;;;;;;1.37;0.80;;;;;;;7.01;74.70;99663.19;4991678;28;20222;-85
2023/01/10 01:32:33;;;;;;;2.60;0.80;;;;;;;7.01;74.56;99669.25;4993033;28;20208;-85
2023/01/10 01:34:58;;;;;;;1.75;1.02;;;;;;;7.03;75.15;99663.97;4991224;28;20465;-85
2023/01/10 01:37:24;;;;;;;5.97;1.73;;;;;;;7.01;74.97;99677.06;4990027;28;20195;-84
2023/01/10 01:39:49;;;;;;;1.43;0.93;;;;;;;7.00;74.67;99685.84;4992425;28;20267;-85
2023/01/10 01:42:41;;;;;;;1.13;0.80;;;;;;;7.00;75.02;99703.28;4991823;28;20192;-83
2023/01/10 01:45:12;;;;;;;1.95;0.90;;;;;;;6.97;74.81;99708.66;4991507;28;20216;-85
2023/01/10 01:47:50;;;;;;;10.45;1.30;;;;;;;6.95;74.83;99716.53;4996248;28;20719;-85
2023/01/10 01:50:31;;;;;;;3.45;1.30;;;;;;;6.95;74.64;99734.00;4996329;28;21013;-84
2023/01/10 01:52:58;;;;;;;3.05;1.00;;;;;;;6.94;74.49;99734.88;4995707;28;20234;-84
2023/01/10 01:55:27;;;;;;;3.85;1.23;;;;;;;6.94;74.36;99740.09;4996778;28;20221;-84
2023/01/10 01:57:55;;;;;;;1.20;1.10;;;;;;;6.94;74.19;99743.59;4996191;28;20699;-85
2023/01/10 02:00:20;;;;;;;1.10;0.90;;;;;;;6.94;73.86;99740.09;4994911;28;20191;-85
2023/01/10 02:02:50;;;;;;;1.50;0.80;;;;;;;6.95;73.94;99739.22;5010513;28;20207;-84
2023/01/10 02:05:17;;;;;;;2.05;1.00;;;;;;;6.97;74.06;99743.44;4995773;28;20438;-83
2023/01/10 02:07:47;;;;;;;4.55;0.90;;;;;;;6.98;73.91;99741.69;4983523;28;20192;-84
2023/01/10 02:10:18;;;;;;;2.05;1.02;;;;;;;6.98;73.73;99741.69;4992663;28;20236;-85
2023/01/10 02:12:45;;;;;;;6.47;1.55;;;;;;;6.97;73.24;99745.22;4982209;28;20255;-84
2023/01/10 02:15:13;;;;;;;7.55;1.27;;;;;;;6.95;72.97;99749.66;4973561;28;20228;-85
2023/01/10 02:17:39;;;;;;;1.48;1.10;;;;;;;6.94;73.23;99742.72;4955318;28;20547;-84
2023/01/10 02:20:06;;;;;;;1.97;1.77;;;;;;;6.93;72.78;99743.66;4973867;28;20194;-85
2023/01/10 02:22:53;;;;;;;7.40;1.45;;;;;;;6.89;72.83;99753.41;4973324;28;20270;-85
2023/01/10 02:25:46;;;;;;;1.65;0.82;;;;;;;6.85;72.83;99765.72;4955049;28;20212;-85
2023/01/10 02:28:12;;;;;;;2.90;0.90;;;;;;;6.82;72.52;99763.25;4971491;28;20203;-84
2023/01/10 02:30:56;;;;;;;2.27;0.90;;;;;;;6.80;72.33;99770.31;4972449;28;20231;-84
2023/01/10 02:33:52;;;;;;;2.50;1.52;;;;;;;6.80;72.49;99775.53;4954459;28;20297;-83
2023/01/10 02:36:43;;;;;;;2.10;1.33;;;;;;;6.79;71.90;99780.84;4971148;28;20227;-84
2023/01/10 02:39:17;;;;;;;7.38;1.00;;;;;;;6.78;71.36;99777.38;4954424;28;20224;-85
2023/01/10 02:41:54;;;;;;;1.63;0.90;;;;;;;6.77;71.51;99782.66;4971882;28;20298;-85
2023/01/10 02:44:35;;;;;;;4.43;1.55;;;;;;;6.75;70.93;99772.31;4969842;28;20223;-84
2023/01/10 02:47:03;;;;;;;4.70;1.20;;;;;;;6.77;71.15;99777.44;4971670;28;20202;-85
2023/01/10 02:49:28;;;;;;;2.97;1.20;;;;;;;6.78;71.04;99800.88;4971386;28;20213;-85
2023/01/10 02:51:55;;;;;;;3.67;1.67;;;;;;;6.80;70.76;99799.03;4969592;28;20725;-85
2023/01/10 02:54:26;;;;;;;2.17;1.30;;;;;;;6.81;70.73;99808.56;4973311;28;20231;-85
2023/01/10 02:57:29;;;;;;;3.30;1.40;;;;;;;6.81;70.63;99805.13;4968213;28;21015;-84
2023/01/10 03:00:20;;;;;;;7.03;1.42;;;;;;;6.79;70.85;99812.16;4950935;28;20342;-85
2023/01/10 03:02:57;;;;;;;3.38;1.05;;;;;;;6.77;70.88;99819.22;4969816;28;20220;-83
2023/01/10 03:05:50;;;;;;;3.55;1.63;;;;;;;6.77;70.97;99834.88;4968947;28;20216;-85
2023/01/10 03:08:29;;;;;;;3.97;1.20;;;;;;;6.75;70.97;99832.34;4970448;28;20997;-85
2023/01/10 03:11:01;;;;;;;2.10;1.30;;;;;;;6.75;70.86;99837.56;4971209;28;20673;-85
2023/01/10 03:13:55;;;;;;;4.97;1.98;;;;;;;6.78;70.91;99842.66;4970160;28;20271;-84
2023/01/10 03:16:25;;;;;;;4.50;2.15;;;;;;;6.78;71.04;99842.66;4969098;28;20282;-85
2023/01/10 03:18:57;;;;;;;2.97;1.50;;;;;;;6.70;70.91;99852.59;4953331;28;20605;-85
2023/01/10 03:21:24;;;;;;;3.53;1.70;;;;;;;6.71;70.85;99854.28;4970254;28;20340;-85
2023/01/10 03:23:55;;;;;;;5.03;2.15;;;;;;;6.71;71.11;99866.47;4969722;28;20227;-84
2023/01/10 03:26:28;;;;;;;3.33;1.40;;;;;;;6.68;71.17;99875.28;4974363;28;20215;-86
2023/01/10 03:29:03;;;;;;;1.77;1.17;;;;;;;6.65;71.38;99876.28;4969837;28;20234;-84
2023/01/10 03:31:41;;;;;;;3.70;1.10;;;;;;;6.63;71.71;99878.09;4968422;28;20783;-84
2023/01/10 03:34:07;;;;;;;4.10;1.50;;;;;;;6.63;71.64;99883.31;4969434;28;20196;-84
2023/01/10 03:36:39;;;;;;;4.68;2.00;;;;;;;6.61;71.70;99886.91;4956107;28;20255;-86
2023/01/10 03:39:23;;;;;;;3.97;1.27;;;;;;;6.59;71.83;99886.16;4969728;28;20287;-84
2023/01/10 03:42:17;;;;;;;2.05;1.00;;;;;;;6.57;71.91;99891.41;4971006;28;20285;-86
2023/01/10 03:44:58;;;;;;;1.38;1.00;;;;;;;6.53;72.22;99897.66;4966964;28;20712;-84
2023/01/10 03:47:40;;;;;;;8.32;1.50;;;;;;;6.50;72.38;99902.16;4968994;28;20200;-84
2023/01/10 03:50:11;;;;;;;1.35;1.00;;;;;;;6.46;72.32;99906.69;4968193;28;20282;-84
2023/01/10 03:52:41;;;;;;;1.85;1.20;;;;;;;6.45;72.56;99904.97;4967408;28;20360;-83
2023/01/10 03:55:10;;;;;;;1.55;0.98;;;;;;;6.42;72.58;99911.16;5009907;23;20617;-85
2023/01/10 03:57:35;;;;;;;1.73;1.50;;;;;;;6.43;72.59;99912.03;5006415;28;20241;-84
2023/01/10 04:00:01;;;;;;;2.00;0.90;;;;;;;6.43;72.51;99910.28;5007081;28;20230;-84
2023/01/10 04:02:30;;;;;;;1.50;1.10;;;;;;;6.47;72.64;99917.97;5007441;28;20211;-85
2023/01/10 04:04:57;;;;;;;3.17;1.10;;;;;;;6.49;72.47;99931.81;5022615;28;20583;-84
2023/01/10 04:07:24;;;;;;;3.00;1.10;;;;;;;6.46;72.41;99935.38;5028312;28;20448;-85
2023/01/10 04:09:49;;;;;;;2.08;1.17;;;;;;;6.44;72.77;99945.03;5026637;28;20472;-85
2023/01/10 04:12:15;;;;;;;1.80;0.80;;;;;;;6.42;72.51;99934.66;5028120;28;20249;-85
2023/01/10 04:14:41;;;;;;;2.93;1.10;;;;;;;6.37;72.87;99935.75;5027810;28;20890;-85
2023/01/10 04:17:06;;;;;;;1.77;1.20;;;;;;;6.36;72.65;99937.50;5027356;28;20198;-85
2023/01/10 04:19:32;;;;;;;1.97;1.00;;;;;;;6.33;72.78;99937.66;5026553;28;20409;-85
2023/01/10 04:21:57;;;;;;;3.77;1.07;;;;;;;6.33;72.68;99944.63;5026764;28;20199;-85
2023/01/10 04:24:23;;;;;;;2.10;1.20;;;;;;;6.31;72.57;99947.28;5027683;28;20209;-85
2023/01/10 04:26:48;;;;;;;3.73;0.90;;;;;;;6.32;72.74;99949.00;5026554;28;20194;-86
2023/01/10 04:29:14;;;;;;;2.00;0.83;;;;;;;6.27;72.97;99950.09;5028613;28;20218;-86
2023/01/10 04:31:40;;;;;;;2.53;1.33;;;;;;;6.26;73.01;99967.50;5028459;28;20194;-85
2023/01/10 04:34:06;;;;;;;1.15;1.00;;;;;;;6.25;73.10;99976.25;5027637;28;20591;-85
2023/01/10 04:36:32;;;;;;;2.60;1.45;;;;;;;6.28;72.84;99981.31;5024475;28;20250;-85
2023/01/10 04:38:58;;;;;;;2.17;1.20;;;;;;;6.30;72.93;99989.94;5025398;28;20295;-85
2023/01/10 04:41:23;;;;;;;3.83;1.57;;;;;;;6.31;72.62;99989.03;5025341;28;20194;-85
2023/01/10 04:43:48;;;;;;;2.67;1.40;;;;;;;6.35;72.53;99997.59;5021371;28;20222;-85
2023/01/10 04:46:15;;;;;;;2.40;1.50;;;;;;;6.35;72.67;99995.84;5021598;28;20202;-85
2023/01/10 04:48:40;;;;;;;2.50;1.40;;;;;;;6.36;72.75;100001.91;5024014;28;20240;-84
2023/01/10 04:51:06;;;;;;;5.93;1.20;;;;;;;6.37;72.35;100006.19;5021713;28;20623;-85
2023/01/10 04:53:31;;;;;;;2.10;1.37;;;;;;;6.40;72.88;100009.56;5021671;28;20461;-85
2023/01/10 04:56:04;;;;;;;2.57;1.13;;;;;;;6.39;72.91;100020.03;5023268;28;20198;-85
2023/01/10 04:58:37;;;;;;;3.17;1.90;;;;;;;6.40;72.86;100025.22;5023210;28;20194;-85
2023/01/10 05:01:11;;;;;;;6.15;3.08;;;;;;;6.43;72.61;100032.91;5023847;28;20193;-85
2023/01/10 05:03:36;;;;;;;2.55;1.20;;;;;;;6.43;72.87;100048.56;5009350;28;20818;-85
2023/01/10 05:06:02;;;;;;;6.87;1.60;;;;;;;6.46;72.73;100044.16;5023455;28;20769;-84
2023/01/10 05:08:27;;;;;;;2.33;1.30;;;;;;;6.47;72.49;100048.44;5023519;28;20209;-85
2023/01/10 05:10:53;;;;;;;5.10;2.30;;;;;;;6.48;72.87;100050.13;5025191;28;20485;-85
2023/01/10 05:13:18;;;;;;;3.17;2.17;;;;;;;6.48;72.82;100063.19;5026977;28;20198;-85
2023/01/10 05:15:44;;;;;;;2.13;1.30;;;;;;;6.45;73.03;100068.53;5023218;28;20479;-85
2023/01/10 05:18:09;;;;;;;2.53;1.67;;;;;;;6.41;73.09;100057.34;5024581;28;20205;-85
2023/01/10 05:20:49;;;;;;;3.70;2.27;;;;;;;6.40;72.98;100064.34;5013029;28;20195;-84
2023/01/10 05:23:15;;;;;;;1.42;1.33;;;;;;;6.40;73.24;100064.34;5014458;28;20562;-85
2023/01/10 05:25:45;;;;;;;2.45;1.30;;;;;;;6.35;73.14;100058.44;5030298;28;20499;-84
2023/01/10 05:28:10;;;;;;;1.63;1.48;;;;;;;6.36;73.07;100049.69;5027409;28;20209;-85
2023/01/10 05:30:35;;;;;;;3.03;2.23;;;;;;;6.34;73.31;100035.03;5028574;28;20225;-84
2023/01/10 05:33:04;;;;;;;11.60;5.97;;;;;;;6.32;73.34;100042.91;5026250;28;20621;-84
2023/01/10 05:35:30;;;;;;;3.97;1.80;;;;;;;6.30;73.17;100049.09;5009254;28;20246;-84
2023/01/10 05:37:56;;;;;;;2.65;1.65;;;;;;;6.26;73.33;100053.56;5031051;28;20264;-84
2023/01/10 05:40:27;;;;;;;1.93;1.20;;;;;;;6.19;73.58;100059.97;5032338;28;20245;-86
2023/01/10 05:43:05;;;;;;;4.28;1.30;;;;;;;6.13;73.69;100060.16;5027448;28;20440;-85
2023/01/10 05:45:30;;;;;;;1.85;1.30;;;;;;;6.13;73.53;100066.25;5028246;28;20569;-85
2023/01/10 05:47:58;;;;;;;3.33;2.43;;;;;;;6.15;73.47;100080.06;5026648;28;20720;-85
2023/01/10 05:50:24;;;;;;;7.57;4.70;;;;;;;6.17;73.35;100086.09;5027194;28;20233;-85
2023/01/10 05:52:50;;;;;;;2.70;2.00;;;;;;;6.19;73.20;100088.66;5009271;28;20182;-86
2023/01/10 05:55:18;;;;;;;4.13;2.13;;;;;;;6.21;73.28;100084.19;5028229;28;20395;-85
2023/01/10 05:57:43;;;;;;;4.95;1.80;;;;;;;6.23;73.40;100085.00;5023591;28;20245;-86
2023/01/10 06:00:22;;;;;;;3.03;2.03;;;;;;;6.23;73.04;100084.16;5010467;28;20195;-85
2023/01/10 06:02:50;;;;;;;3.22;1.48;;;;;;;6.21;72.86;100097.25;5012639;28;20320;-85
2023/01/10 06:05:16;;;;;;;2.80;1.60;;;;;;;6.18;73.06;100092.16;5005600;28;20301;-85
2023/01/10 06:07:41;;;;;;;2.43;1.43;;;;;;;6.15;73.11;100087.06;5008086;28;20680;-85
2023/01/10 06:10:07;;;;;;;1.57;1.20;;;;;;;6.09;73.25;100084.69;5024849;28;20416;-86
2023/01/10 06:12:48;;;;;;;6.20;1.50;;;;;;;6.04;73.34;100076.19;5023304;28;20213;-86
2023/01/10 06:15:14;;;;;;;2.72;1.30;;;;;;;5.98;73.65;100082.47;5025816;28;21010;-85
2023/01/10 06:17:39;;;;;;;2.28;1.58;;;;;;;5.95;73.27;100080.81;5026321;28;20202;-86
2023/01/10 06:20:09;;;;;;;2.00;1.50;;;;;;;5.91;73.55;100088.78;5008947;28;20205;-87
2023/01/10 06:22:35;;;;;;;1.60;1.50;;;;;;;5.90;73.40;100093.16;5026578;28;20193;-86
2023/01/10 06:25:04;;;;;;;5.57;2.77;;;;;;;5.87;73.37;100085.44;5009063;28;20218;-86
2023/01/10 06:27:29;;;;;;;12.63;6.90;;;;;;;5.87;73.51;100106.31;5026311;28;20202;-85
2023/01/10 06:29:55;;;;;;;8.17;2.40;;;;;;;5.84;73.56;100114.25;5025720;28;20447;-86
2023/01/10 06:32:20;;;;;;;7.32;1.60;;;;;;;5.82;73.76;100121.25;5027755;28;20201;-86
2023/01/10 06:34:46;;;;;;;3.30;2.17;;;;;;;5.84;73.92;100116.84;5009078;28;20449;-86
2023/01/10 06:37:11;;;;;;;5.80;3.70;;;;;;;5.84;73.70;100118.59;5027975;28;20187;-86
2023/01/10 06:39:38;;;;;;;11.23;5.50;;;;;;;5.77;73.97;100125.78;4999804;28;20201;-86
2023/01/10 06:42:03;;;;;;;7.22;3.30;;;;;;;5.77;73.61;100123.16;5006749;28;20283;-86
2023/01/10 06:44:29;;;;;;;7.67;3.00;;;;;;;5.77;73.68;100120.56;5007012;28;20350;-86
2023/01/10 06:46:54;;;;;;;8.17;4.43;;;;;;;5.70;73.86;100134.75;5006650;28;20188;-86
2023/01/10 06:49:20;;;;;;;8.73;1.90;;;;;;;5.68;73.87;100155.63;5008998;28;20316;-85
2023/01/10 06:51:45;;;;;;;6.50;2.27;;;;;;;5.72;73.75;100141.56;5026592;28;20192;-87
2023/01/10 06:54:11;;;;;;;2.30;1.43;;;;;;;5.68;74.01;100158.25;5025112;28;20230;-86
2023/01/10 06:56:36;;;;;;;3.77;1.50;;;;;;;5.65;74.32;100167.94;5008973;28;20295;-85
2023/01/10 06:59:01;;;;;;;6.37;3.60;;;;;;;5.69;73.89;100174.72;5026296;28;20475;-86
2023/01/10 07:01:27;;;;;;;5.80;2.73;;;;;;;5.72;74.12;100177.22;5024608;28;20381;-85
2023/01/10 07:03:52;;;;;;;9.13;3.87;;;;;;;5.77;73.76;100175.31;5027228;28;20687;-86
2023/01/10 07:06:18;;;;;;;12.77;8.20;;;;;;;5.79;73.58;100176.09;4999948;28;20209;-86
2023/01/10 07:08:49;;;;;;;7.77;4.47;;;;;;;5.84;73.46;100178.56;5075532;23;20251;-87
2023/01/10 07:11:21;;;;;;;7.05;2.85;;;;;;;5.82;73.69;100170.78;4967774;28;20209;-88
2023/01/10 07:13:46;;;;;;;3.20;1.90;;;;;;;5.84;73.37;100166.38;4973092;28;20228;-88
2023/01/10 07:16:14;;;;;;;3.50;1.30;;;;;;;5.83;73.28;100179.44;4967915;28;20718;-87
2023/01/10 07:18:41;;;;;;;3.40;1.63;;;;;;;5.85;73.31;100186.31;4978878;28;20198;-87
2023/01/10 07:21:08;;;;;;;3.55;1.25;;;;;;;5.84;73.22;100184.63;4986238;28;20209;-85
2023/01/10 07:23:34;;;;;;;4.78;1.98;;;;;;;5.87;73.18;100179.28;4984848;28;20218;-85
2023/01/10 07:26:08;;;;;;;4.82;1.77;;;;;;;5.88;72.99;100173.16;4987798;28;20513;-85
2023/01/10 07:28:34;;;;;;;2.58;2.10;;;;;;;5.90;72.96;100180.94;4986617;28;20205;-85
2023/01/10 07:31:01;;;;;;;1.77;1.00;;;;;;;5.88;73.02;100187.97;4987517;28;20208;-85
2023/01/10 07:33:27;;;;;;;4.70;1.70;;;;;;;5.89;72.90;100193.13;4968176;28;20281;-85
2023/01/10 07:35:53;;;;;;;3.17;2.08;;;;;;;5.91;72.77;100195.69;4986873;28;20198;-85
2023/01/10 07:38:18;;;;;;;4.30;1.73;;;;;;;5.95;72.76;100205.13;4985755;28;20199;-85
2023/01/10 07:40:46;;;;;;;3.57;1.73;;;;;;;5.93;72.40;100215.59;4986385;28;20201;-85
2023/01/10 07:43:11;;;;;;;5.50;2.13;;;;;;;5.95;72.43;100224.25;4986645;28;20214;-85
2023/01/10 07:45:37;;;;;;;2.30;1.53;;;;;;;5.97;72.39;100230.25;4967833;28;20199;-85
2023/01/10 07:48:04;;;;;;;12.60;2.13;;;;;;;5.96;72.30;100225.09;4986731;28;20581;-85
2023/01/10 07:50:32;;;;;;;2.85;1.80;;;;;;;5.99;72.09;100232.78;4984837;28;20583;-85
2023/01/10 07:52:59;;;;;;;1.77;1.00;;;;;;;6.03;72.23;100225.75;4985565;28;20199;-85
2023/01/10 07:55:24;;;;;;;3.50;1.48;;;;;;;6.05;71.71;100236.94;4969028;28;20229;-85
2023/01/10 07:57:51;;;;;;;1.40;1.20;;;;;;;6.04;71.74;100235.25;4984795;28;20202;-85
2023/01/10 08:00:17;;;;;;;11.88;4.43;;;;;;;6.07;71.69;100243.81;4985362;28;20190;-85
2023/01/10 08:02:43;;;;;;;5.00;3.40;;;;;;;6.07;71.71;100246.41;4985606;28;20200;-85
2023/01/10 08:05:09;;;;;;;6.70;3.80;;;;;;;6.08;71.74;100252.50;4984071;28;20211;-84
2023/01/10 08:07:34;;;;;;;7.63;3.00;;;;;;;6.05;71.62;100253.47;4988827;28;20224;-83
2023/01/10 08:09:59;;;;;;;2.80;2.10;;;;;;;6.05;71.54;100248.25;4984472;28;20238;-85
2023/01/10 08:12:25;;;;;;;3.00;2.03;;;;;;;6.05;71.38;100257.81;4984064;28;20278;-84
2023/01/10 08:14:51;;;;;;;6.10;2.10;;;;;;;6.04;71.35;100261.34;4984538;28;20311;-84
2023/01/10 08:17:17;;;;;;;6.97;1.92;;;;;;;6.05;71.27;100269.13;4983574;28;20674;-84
2023/01/10 08:19:43;;;;;;;3.90;1.77;;;;;;;6.03;71.38;100270.06;4984516;28;20200;-84
2023/01/10 08:22:08;;;;;;;5.23;2.30;;;;;;;6.03;71.25;100270.06;4986295;28;20199;-84
2023/01/10 08:24:34;;;;;;;5.40;2.57;;;;;;;6.11;71.45;100268.06;4983439;28;20631;-84
2023/01/10 08:27:00;;;;;;;8.10;3.80;;;;;;;6.20;70.96;100271.16;4966147;28;20193;-84
2023/01/10 08:29:26;;;;;;;6.28;3.28;;;;;;;6.29;70.71;100274.38;4982141;28;20371;-84
2023/01/10 08:31:52;;;;;;;6.90;2.55;;;;;;;6.34;70.80;100268.06;4983835;28;20242;-84
2023/01/10 08:34:20;;;;;;;7.67;3.67;;;;;;;6.42;70.58;100266.03;4985775;28;20224;-84
2023/01/10 08:36:50;;;;;;;4.60;3.08;;;;;;;6.51;70.49;100267.50;4985934;28;20212;-84
2023/01/10 08:39:16;;;;;;;6.65;3.20;;;;;;;6.52;70.35;100274.41;4984717;28;20202;-83
2023/01/10 08:41:41;;;;;;;5.00;2.73;;;;;;;6.57;70.00;100271.63;4985015;28;20200;-84
2023/01/10 08:44:07;;;;;;;1.83;1.40;;;;;;;6.58;70.02;100276.78;4986598;28;20298;-84
2023/01/10 08:46:32;;;;;;;6.93;1.80;;;;;;;6.64;69.77;100283.53;4984281;28;20223;-84
2023/01/10 08:48:58;;;;;;;8.00;2.60;;;;;;;6.69;69.57;100286.81;4984135;28;20223;-85
2023/01/10 08:51:23;;;;;;;5.10;2.17;;;;;;;6.93;69.52;100294.66;4984479;28;20199;-85
2023/01/10 08:53:48;;;;;;;8.10;3.20;;;;;;;7.68;68.27;100289.97;4983377;28;20219;-85
2023/01/10 08:56:14;;;;;;;5.50;3.67;;;;;;;8.60;66.08;100280.81;4984288;28;20230;-86
2023/01/10 08:58:39;;;;;;;3.83;2.70;;;;;;;8.97;63.91;100289.66;4984431;28;20215;-86
2023/01/10 09:01:07;;;;;;;7.37;2.90;;;;;;;9.08;63.60;100297.84;4983267;28;20268;-85
2023/01/10 09:03:33;;;;;;;6.00;1.85;;;;;;;9.16;62.80;100304.53;4985084;28;20277;-85
2023/01/10 09:06:00;;;;;;;5.18;1.88;;;;;;;8.98;62.98;100311.44;4983173;28;20204;-85
2023/01/10 09:08:25;;;;;;;5.30;1.98;;;;;;;8.62;63.43;100320.06;4985819;28;20509;-85
2023/01/10 09:10:51;;;;;;;4.73;1.60;;;;;;;8.22;64.30;100320.91;4967829;28;20273;-86
2023/01/10 09:13:16;;;;;;;5.53;2.50;;;;;;;7.95;65.19;100328.97;4985114;28;20199;-86
2023/01/10 09:15:42;;;;;;;5.50;1.90;;;;;;;7.75;65.92;100322.81;4984302;28;20227;-86
2023/01/10 09:18:10;;;;;;;6.27;1.60;;;;;;;7.61;66.13;100329.47;4983602;28;20818;-86
2023/01/10 09:20:39;;;;;;;4.80;2.63;;;;;;;7.51;66.57;100327.25;4984278;28;20208;-86
2023/01/10 09:23:07;;;;;;;5.25;2.55;;;;;;;7.47;66.77;100337.88;4984546;28;20203;-86
2023/01/10 09:25:32;;;;;;;5.05;3.17;;;;;;;7.44;66.91;100331.00;4984537;28;20223;-86
2023/01/10 09:27:59;;;;;;;10.00;3.60;;;;;;;7.44;67.42;100332.78;4984992;28;20564;-86
2023/01/10 09:30:26;;;;;;;7.85;2.88;;;;;;;7.50;66.89;100341.22;4986319;28;20227;-86
2023/01/10 09:32:52;;;;;;;9.55;3.17;;;;;;;7.55;67.10;100338.44;4986238;28;20234;-86
2023/01/10 09:35:18;;;;;;;7.40;3.47;;;;;;;7.59;67.08;100342.63;4982786;28;20562;-85
2023/01/10 09:37:43;;;;;;;8.30;2.60;;;;;;;7.65;66.88;100344.16;4984661;28;20477;-86
2023/01/10 09:40:14;;;;;;;6.93;2.20;;;;;;;7.79;66.67;100338.38;4983850;28;20188;-86
2023/01/10 09:42:50;;;;;;;5.55;3.40;;;;;;;7.96;66.16;100341.13;4984091;28;20661;-85
2023/01/10 09:45:24;;;;;;;3.80;2.33;;;;;;;8.14;65.47;100342.16;4983616;28;20222;-85
2023/01/10 09:47:53;;;;;;;3.90;2.00;;;;;;;8.28;65.28;100341.56;4984509;28;20536;-86
2023/01/10 09:50:29;;;;;;;2.92;2.08;;;;;;;8.47;64.44;100347.75;4984660;28;20227;-86
2023/01/10 09:53:17;;;;;;;6.38;1.60;;;;;;;8.59;63.72;100342.00;4984188;28;20198;-86
2023/01/10 09:55:53;;;;;;;5.32;2.72;;;;;;;8.84;63.20;100357.47;5048762;23;20311;-84
2023/01/10 09:58:21;;;;;;;5.82;2.00;;;;;;;9.19;62.27;100364.66;4991149;28;20242;-84
2023/01/10 10:00:56;;;;;;;2.78;2.17;;;;;;;9.87;60.35;100351.81;4996851;28;20378;-84
2023/01/10 10:03:29;;;;;;;8.82;3.67;;;;;;;10.75;57.87;100349.16;4997632;28;20195;-84
2023/01/10 10:05:56;;;;;;;6.78;2.35;;;;;;;11.70;54.93;100348.38;4998224;28;20212;-84
2023/01/10 10:08:22;;;;;;;3.60;2.38;;;;;;;12.32;53.01;100349.19;4999346;28;20199;-84
2023/01/10 10:11:19;;;;;;;3.77;2.43;;;;;;;12.84;51.37;100342.56;5000176;28;20208;-84
2023/01/10 10:14:05;;;;;;;4.72;1.35;;;;;;;13.04;50.57;100339.56;4998685;28;20270;-84
2023/01/10 10:16:37;;;;;;;2.47;1.52;;;;;;;12.89;50.41;100337.88;5002863;28;20859;-84
2023/01/10 10:19:28;;;;;;;3.25;2.13;;;;;;;12.45;51.30;100343.19;5002808;28;20369;-84
2023/01/10 10:22:12;;;;;;;3.42;2.03;;;;;;;11.85;52.81;100346.66;5004290;28;20172;-84
2023/01/10 10:25:02;;;;;;;2.55;1.55;;;;;;;11.49;53.98;100340.75;5003237;28;20208;-84
2023/01/10 10:27:35;;;;;;;5.25;2.30;;;;;;;11.18;54.98;100335.47;4986680;28;20690;-84
2023/01/10 10:30:10;;;;;;;8.35;2.65;;;;;;;10.79;56.26;100337.53;4996363;28;20290;-86
2023/01/10 10:32:51;;;;;;;5.63;2.03;;;;;;;10.33;57.63;100332.03;5000408;28;20169;-84
2023/01/10 10:35:29;;;;;;;5.18;2.38;;;;;;;10.00;58.95;100341.59;5002593;28;20208;-84
2023/01/10 10:38:01;;;;;;;6.45;2.08;;;;;;;9.80;59.64;100338.13;5003513;28;20192;-84
2023/01/10 10:40:32;;;;;;;6.53;1.63;;;;;;;9.62;59.47;100336.44;5002416;28;20172;-84
2023/01/10 10:43:12;;;;;;;3.35;1.50;;;;;;;9.48;59.45;100324.00;5003195;28;20176;-84
2023/01/10 10:45:43;;;;;;;1.70;1.20;;;;;;;9.38;58.73;100328.81;5003050;28;20203;-84
2023/01/10 10:48:28;;;;;;;3.22;1.48;;;;;;;9.37;59.30;100329.72;5003901;28;20191;-84
2023/01/10 10:51:28;;;;;;;5.82;1.40;;;;;;;9.38;58.80;100335.81;5003729;28;20181;-84
2023/01/10 10:53:55;;;;;;;6.20;2.08;;;;;;;9.37;58.44;100334.97;5004408;28;20184;-84
2023/01/10 10:56:24;;;;;;;4.50;2.03;;;;;;;9.29;58.14;100331.88;5004731;28;20293;-84
2023/01/10 10:58:54;;;;;;;9.98;1.95;;;;;;;9.23;57.96;100337.38;5003365;28;20663;-84
2023/01/10 11:01:21;;;;;;;3.35;1.40;;;;;;;9.19;57.92;100339.28;5003665;28;20196;-86
2023/01/10 11:04:06;;;;;;;5.47;1.42;;;;;;;9.12;57.99;100342.25;4987130;28;20660;-84
2023/01/10 11:06:35;;;;;;;8.75;1.73;;;;;;;9.11;58.03;100333.56;5003887;28;20183;-85
2023/01/10 11:09:03;;;;;;;8.93;1.88;;;;;;;9.11;57.82;100343.19;5004945;28;20242;-86
2023/01/10 11:11:36;;;;;;;5.03;1.30;;;;;;;9.07;57.44;100342.47;5003019;28;20199;-85
2023/01/10 11:14:06;;;;;;;2.88;1.67;;;;;;;8.95;57.50;100336.03;5002516;28;20196;-84
2023/01/10 11:16:35;;;;;;;11.77;1.65;;;;;;;8.85;57.70;100330.34;5003579;28;20181;-85
2023/01/10 11:19:09;;;;;;;7.20;1.75;;;;;;;8.80;58.06;100339.31;5015484;28;20566;-84
2023/01/10 11:21:35;;;;;;;6.22;1.63;;;;;;;8.75;58.49;100347.41;5004077;28;20163;-84
2023/01/10 11:24:01;;;;;;;4.07;1.83;;;;;;;8.73;58.90;100343.16;5002775;28;20188;-84
2023/01/10 11:26:33;;;;;;;5.27;2.27;;;;;;;8.75;58.89;100339.53;5004413;28;20240;-85
2023/01/10 11:29:14;;;;;;;4.57;1.55;;;;;;;8.85;59.08;100332.97;5004558;28;20202;-84
2023/01/10 11:31:40;;;;;;;9.48;2.08;;;;;;;8.92;59.11;100323.06;5004751;28;20172;-84
2023/01/10 11:34:19;;;;;;;9.32;2.40;;;;;;;8.99;59.05;100328.88;5000685;28;20211;-83
2023/01/10 11:37:01;;;;;;;4.25;2.30;;;;;;;9.06;59.18;100328.53;5003076;28;20183;-84
2023/01/10 11:39:27;;;;;;;5.68;2.40;;;;;;;9.14;59.49;100316.84;5002108;28;20404;-85
2023/01/10 11:41:54;;;;;;;8.52;2.72;;;;;;;9.13;59.39;100321.25;5001592;28;20200;-84
2023/01/10 11:44:28;;;;;;;7.07;1.90;;;;;;;9.16;59.58;100308.00;4998824;28;20211;-84
2023/01/10 11:47:01;;;;;;;4.90;1.75;;;;;;;9.20;59.22;100320.00;4997463;28;20391;-84
2023/01/10 11:49:32;;;;;;;9.30;2.10;;;;;;;9.23;59.19;100308.53;5002927;28;20509;-84
2023/01/10 11:52:14;;;;;;;7.82;2.45;;;;;;;9.27;59.21;100320.59;5001070;28;20192;-85